Departure ICAO
Arrival ICAO

The revolutionary moving map for travelling passengers has finally arrived
More information here

LFMD Cannes Mandelieu - EGKB London Biggin Hill


Distance 545 NM


LFMN Nice Cote D'Azur VFR CAVOK

METAR LFMN 171730Z 32013KT 270V360 CAVOK 12/M06 Q1012 NOSIG

TAF LFMN 171400Z 1715/1821 24015G30KT 9999 FEW050 PROB30 TEMPO 1715/1717 33020G40KT BECMG 1718/1720 34010KT CAVOK PROB30 TEMPO 1801/1804 26010KT BECMG 1807/1809 07005KT


LFMD Cannes Mandelieu VFR CAVOK

METAR LFMD 171730Z AUTO 29014KT 260V340 CAVOK 12/M13 Q1013 TEMPO 27030G40KT

TAF LFMD 171400Z 1715/1815 30020G30KT CAVOK PROB40 TEMPO 1715/1801 27030G40KT BECMG 1723/1801 28010KT


LFLB Chambery Aix Les Bains VFR

METAR LFLB 171730Z AUTO 01004KT 280V060 9999 SCT048 BKN056 BKN066 03/01 Q1022 NOSIG

TAF LFLB 171100Z 1712/1812 36010KT 9999 SCT040 BKN060 TEMPO 1712/1716 36015G25KT 4000 SHRA SCT030TCU BECMG 1718/1720 16007KT PROB30 TEMPO 1805/1812 -RA


LFLS Grenoble Saint Geoirs VFR

METAR LFLS 171730Z AUTO 14003KT 9999 BKN062 02/M02 Q1021 NOSIG

TAF LFLS 171400Z 1715/1815 32008KT 9999 BKN050 BECMG 1718/1720 09006KT BECMG 1812/1814 16005KT


LFLL Lyon Saint Exupery VFR CAVOK

METAR LFLL 171730Z 30003KT CAVOK 05/M02 Q1021 NOSIG

TAF LFLL 171100Z 1712/1818 30008KT 9999 BKN040 BKN090 PROB40 TEMPO 1712/1715 30015G30KT 4000 SHRA FEW025CB SCT030TCU BECMG 1717/1720 18005KT TEMPO 1808/1818 -RA


LFLY Lyon Bron VFR CAVOK

METAR LFLY 171730Z AUTO VRB02KT CAVOK 06/M01 Q1021 NOSIG

TAF LFLY 171100Z 1712/1812 31010KT 9999 BKN050 TEMPO 1712/1714 30015G25KT 4000 SHRA SCT030TCU BECMG 1718/1720 18007KT


LFPO Paris Orly VFR

METAR LFPO 171730Z 24013KT 9999 FEW033 SCT056 06/02 Q1015 NOSIG

TAF LFPO 171100Z 1712/1818 26012KT 9999 SCT035 TEMPO 1712/1716 27018G35KT 4000 -SHRA BKN020 SCT025CB BECMG 1721/1723 22015G25KT -RA BKN016 TEMPO 1801/1813 4000 -RADZ BKN012 PROB40 TEMPO 1801/1818 24020G33KT PROB30 TEMPO 1812/1814 3500 RA BKN008 BECMG 1814/1816 NSW SCT030


LFPG Paris Charles De Gaulle VFR

METAR LFPG 171730Z 25014G24KT 9999 FEW033 SCT046 BKN210 06/02 Q1014 NOSIG

TAF LFPG 171100Z 1712/1818 26015KT 9999 SCT040 TEMPO 1712/1716 SCT020TCU PROB40 TEMPO 1712/1715 30020G40KT 3000 -TSRAGS SCT020CB BECMG 1720/1722 23015G25KT BECMG 1801/1804 23025G40KT PROB40 TEMPO 1801/1807 BKN012 PROB40 TEMPO 1801/1812 3000 RA TX11/1811Z TN05/1720Z


LFPB Paris Le Bourget VFR

METAR LFPB 171730Z AUTO 25011KT 9999 FEW041 BKN050 BKN160 06/03 Q1015 NOSIG

TAF LFPB 171100Z 1712/1812 26015KT 9999 SCT040 TEMPO 1712/1716 SCT020TCU PROB40 TEMPO 1712/1715 30020G40KT 3000 -TSRAGS SCT020CB BECMG 1720/1722 23015G25KT BECMG 1801/1804 23025G40KT PROB40 TEMPO 1801/1807 BKN012 PROB40 TEMPO 1801/1812 3000 RA


LFPV Villacoublay Velizy VFR

METAR LFPV 171730Z AUTO 25012KT 210V270 9999 FEW032 SCT041 BKN050 06/02 Q1015 BECMG 26015G25KT

TAF LFPV 171400Z 1715/1815 26015G25KT 9999 SCT040 PROB40 TEMPO 1715/1718 26020G30KT BKN015 SCT030TCU BECMG 1721/1723 BKN012 BECMG 1800/1802 23020G30KT 5000 -RADZ TEMPO 1802/1808 23020G40KT 3000 DZRA BKN004 BECMG 1808/1809 27015G30KT 9999 NSW BKN020 TEMPO 1809/1814 27020G35KT 3000 SHRA SCT012 BKN020CB


LFOB Beauvais Tille VFR

METAR LFOB 171730Z AUTO 24011KT 9999 SCT034 BKN160 OVC200 06/02 Q1013 NOSIG

TAF LFOB 171100Z 1712/1812 27015G25KT 9999 SCT040 TEMPO 1720/1806 4000 RA BKN007 OVC015 TEMPO 1800/1806 24025G35KT TEMPO 1806/1812 27030G45KT 4000 SHRA BKN030CB


EGMD Lydd VFR

METAR EGMD 171720Z 26016KT 9999 FEW025 06/00 Q1010

TAF EGMD 171357Z 1715/1724 28018KT 9999 FEW030 TEMPO 1715/1720 29022G35KT BECMG 1720/1723 22015KT PROB30 TEMPO 1723/1724 23018G28KT


EGKA Shoreham By Sea Shoreham VFR

METAR EGKA 171720Z 26010KT 9999 FEW030 06/01 Q1010

TAF EGKA 171357Z 1715/1720 27018KT 9999 FEW030 TEMPO 1715/1720 28022G35KT BECMG 1718/1720 21015KT


EGKB London Biggin Hill VFR

METAR EGKB 171720Z 24010KT 9999 FEW035 05/00 Q1009

TAF EGKB 171357Z 1715/1723 26015KT 9999 FEW030 TEMPO 1715/1718 27018G30KT BECMG 1718/1721 20014KT PROB30 TEMPO 1722/1723 22017G27KT


EGKK London Gatwick VFR

METAR EGKK 171720Z 24009KT 9999 FEW034 05/00 Q1009

TAF EGKK 171055Z 1712/1818 27019G29KT CAVOK BECMG 1715/1718 26010KT BECMG 1722/1724 22018G28KT 7000 -RA BKN012 PROB30 TEMPO 1722/1802 4000 RA BKN009 BECMG 1800/1802 25020G32KT 9999 NSW SCT025 PROB30 TEMPO 1802/1808 26025G43KT PROB30 TEMPO 1802/1804 6000 SHRA BKN014 BECMG 1815/1818 26012KT


EGLC London City VFR

METAR EGLC 171720Z AUTO 25011KT 9999 FEW038 07/M01 Q1009

TAF EGLC 171357Z 1715/1722 26014KT 9999 FEW030 PROB30 TEMPO 1715/1718 27017G27KT BECMG 1718/1721 20014KT


EGSS London Stansted VFR

METAR EGSS 171720Z AUTO 25013KT 9999 NCD 05/M01 Q1007

TAF EGSS 171100Z 1712/1818 26014KT 9999 FEW025 TEMPO 1712/1716 27020G30KT TEMPO 1721/1802 7000 RA BKN012 BECMG 1722/1801 20020G30KT PROB40 TEMPO 1722/1801 19025G40KT 3000 +RA BKN006 BECMG 1801/1803 25025G35KT PROB30 TEMPO 1803/1807 27030G45KT BECMG 1809/1812 27017KT PROB30 TEMPO 1809/1812 7000 SHRA BKN012 TEMPO 1812/1818 28020G30KT PROB30 TEMPO 1812/1818 4000 +SHRAGS SHRASN BKN006


EGLL London Heathrow VFR

METAR EGLL 171720Z AUTO 23010KT 9999 NCD 06/00 Q1009 NOSIG

TAF EGLL 171056Z 1712/1818 27018G28KT 9999 FEW025 BECMG 1714/1717 26012KT TEMPO 1722/1802 22018G28KT 4000 RA BKN010 BECMG 1802/1805 26022G35KT PROB30 TEMPO 1802/1807 27026G45KT BECMG 1807/1810 28015G25KT PROB30 TEMPO 1813/1817 3500 +SHRA SHGS BKN014CB BECMG 1814/1817 27012KT


EGWU Northolt VFR

METAR EGWU 171650Z 26009KT 9999 FEW040 06/M00 Q1008 NOSIG

TAF EGWU 171400Z 1715/1809 28015KT 9999 SCT035 TEMPO 1715/1716 29018G28KT BECMG 1720/1723 BKN016 TEMPO 1722/1802 7000 RA SCT012 BECMG 1723/1801 28020G30KT BECMG 1802/1804 SCT025 PROB30 TEMPO 1802/1807 29030G40KT


EGLF London Farnborough VFR

METAR EGLF 171720Z 25013KT 9999 FEW042 05/01 Q1009

TAF EGLF 171357Z 1715/1722 26018KT 9999 FEW030 TEMPO 1715/1718 27020G32KT BECMG 1718/1721 20015KT



NOTAMS LFMD

 NOTAMS EGKB